METAR AND TAF INFORMATION
METAR FOR LKPR
ADDS - METARS form results

(2310 UTC 22 May 2018)
Data provider http://aviationweather.gov/adds/metars/
 
METAR text: LKPR 222300Z 05005KT CAVOK 15/12 Q1015 NOSIG
Conditions at: LKPR (PRAGUE/RUZYNE , CZ) observed 2300 UTC 22 May 2018
Temperature: 15.0°C (59°F)
Dewpoint: 12.0°C (54°F) [RH = 82%]
Pressure (altimeter): 29.97 inches Hg (1015.0 mb)
Winds: from the NE (50 degrees) at 6 MPH (5 knots; 2.6 m/s)
Visibility: 6 or more miles (10+ km)
Ceiling: ceiling and visibility are OK
Clouds: unknown
Weather: no significant weather observed at this time

METAR text: LKPR 222230Z 08005KT CAVOK 16/12 Q1015 NOSIG
Conditions at: LKPR (PRAGUE/RUZYNE , CZ) observed 2230 UTC 22 May 2018
Temperature: 16.0°C (61°F)
Dewpoint: 12.0°C (54°F) [RH = 77%]
Pressure (altimeter): 29.97 inches Hg (1015.0 mb)
Winds: from the E (80 degrees) at 6 MPH (5 knots; 2.6 m/s)
Visibility: 6 or more miles (10+ km)
Ceiling: ceiling and visibility are OK
Clouds: unknown
Weather: no significant weather observed at this time

Forecast for: LKPR (PRAGUE/RUZYNE , CZ)
Text: TAF LKPR 221700Z 2218/2400 07010KT CAVOK
Forecast period: 1800 UTC 22 May 2018 to 0000 UTC 24 May 2018
Forecast type: FROM: standard forecast or significant change
Winds: from the ENE (70 degrees) at 12 MPH (10 knots; 5.2 m/s)
Visibility: 6 or more miles (10+ km)
Clouds: not forecast
Weather: NSW  (no significant weather)
Forecast for: LKPR (PRAGUE/RUZYNE , CZ)
Text: TAF LKPR 221700Z 2218/2400 07010KT CAVOK
Forecast period: 1800 UTC 22 May 2018 to 0000 UTC 24 May 2018
Forecast type: FROM: standard forecast or significant change
Winds: from the ENE (70 degrees) at 12 MPH (10 knots; 5.2 m/s)
Visibility: 6 or more miles (10+ km)
Clouds: not forecast
Weather: NSW  (no significant weather)
Forecast for: LKPR (PRAGUE/RUZYNE , CZ)
Text: TAF LKPR 221700Z 2218/2400 07010KT CAVOK
Forecast period: 1800 to 2300 UTC 22 May 2018
Forecast type: TEMPORARY: The following changes expected for less than half the time period
Visibility: 5 miles (8 km)
Clouds: scattered clouds at 4300 feet AGL
Weather: SHRA  (rain showers)
Forecast for: LKPR (PRAGUE/RUZYNE , CZ)
Text: TAF LKPR 221700Z 2218/2400 07010KT CAVOK
Forecast period: 1800 to 2300 UTC 22 May 2018
Forecast type: TEMPORARY: The following changes expected for less than half the time period
Visibility: 5 miles (8 km)
Clouds: scattered clouds at 4300 feet AGL
Weather: SHRA  (rain showers)
Forecast for: LKPR (PRAGUE/RUZYNE , CZ)
Text: TAF LKPR 221700Z 2218/2400 07010KT CAVOK
Forecast period: 1800 to 2200 UTC 22 May 2018
Forecast type: TEMPORARY: The following changes expected for less than half the time period
Clouds: scattered clouds at 4000 feet AGL
Weather: no significant weather forecast for this period
Forecast for: LKPR (PRAGUE/RUZYNE , CZ)
Text: TAF LKPR 221700Z 2218/2400 07010KT CAVOK
Forecast period: 1800 to 2200 UTC 22 May 2018
Forecast type: TEMPORARY: The following changes expected for less than half the time period
Clouds: scattered clouds at 4000 feet AGL
Weather: no significant weather forecast for this period
Forecast for: LKPR (PRAGUE/RUZYNE , CZ)
Text: TAF LKPR 221700Z 2218/2400 07010KT CAVOK
Forecast period: 0900 to 2100 UTC 23 May 2018
Forecast type: TEMPORARY: The following changes expected for less than half the time period
Winds: from the NE (50 degrees) at 16 MPH (14 knots; 7.3 m/s)
gusting to 28 MPH (24 knots; 12.5 m/s)
Visibility: 4 miles (6 km)
Clouds: scattered clouds at 3000 feet AGL
Weather: SHRA  (rain showers)
Forecast for: LKPR (PRAGUE/RUZYNE , CZ)
Text: TAF LKPR 221700Z 2218/2400 07010KT CAVOK
Forecast period: 0900 to 2100 UTC 23 May 2018
Forecast type: TEMPORARY: The following changes expected for less than half the time period
Winds: from the NE (50 degrees) at 16 MPH (14 knots; 7.3 m/s)
gusting to 28 MPH (24 knots; 12.5 m/s)
Visibility: 4 miles (6 km)
Clouds: scattered clouds at 3000 feet AGL
Weather: SHRA  (rain showers)
Forecast for: LKPR (PRAGUE/RUZYNE , CZ)
Text: TAF LKPR 221700Z 2218/2400 07010KT CAVOK
Forecast period: 1100 to 1900 UTC 23 May 2018
Forecast type: TEMPORARY: The following changes expected for less than half the time period
Visibility: 2.17 miles (3.49 km)
Clouds: scattered clouds at 2000 feet AGL
Weather: TSRA  (rain associated with thunderstorm(s))
Forecast for: LKPR (PRAGUE/RUZYNE , CZ)
Text: TAF LKPR 221700Z 2218/2400 07010KT CAVOK
Forecast period: 1100 to 1900 UTC 23 May 2018
Forecast type: TEMPORARY: The following changes expected for less than half the time period
Visibility: 2.17 miles (3.49 km)
Clouds: scattered clouds at 2000 feet AGL
Weather: TSRA  (rain associated with thunderstorm(s))

 AIRPORT MAP

 RUNWAY INFORMATION
Runway 04 Runway length 6955 ft Runway width 197 ft
Runway elevation 1247 ft Runway displaced threshold 0 ft Runway heading 37
Runway 22 Runway length 6955 ft Runway width 197 ft
Runway elevation 1174 ft Runway displaced threshold 0 ft Runway heading 217
Runway 06 Runway length 12189 ft Runway width 148 ft
Runway elevation 1202 ft Runway displaced threshold 0 ft Runway heading 65
Runway 24 Runway length 12189 ft Runway width 148 ft
Runway elevation 1158 ft Runway displaced threshold 0 ft Runway heading 245
Runway 13 Runway length 10663 ft Runway width 148 ft
Runway elevation 1160 ft Runway displaced threshold 0 ft Runway heading 127
Runway 31 Runway length 10663 ft Runway width 148 ft
Runway elevation 1232 ft Runway displaced threshold 0 ft Runway heading 307

 AIRPORT FREQUENCIES
Type APP Name PRAHA APP Frequency 120.525 MHZ
Type ATIS Name ATIS Frequency 122.15 MHZ
Type CLD Name CLNC DEL Frequency 120.05 MHZ
Type GND Name GND Frequency 121.9 MHZ
Type INFO Name INFO Frequency 118.3 MHZ
Type RDR Name RADAR Frequency 119 MHZ
Type TWR Name TWR Frequency 118.1 MHZ

 AIRPORT NEAR NAVIGATION AIDS
Type VOR-DME Name Neratovice Frequency 108600 KHZ
Type VOR-DME Name Praha Frequency 112600 KHZ
Type NDB Name Ruzyne Middle Frequency 307 KHZ
Type NDB Name Ruzyne North Frequency 356 KHZ



Powered by Virtual Airlines Manager [v2.6.2]